Time;durP1;ratioP1;P1;durP2;ratioP2;P2;SDS_P1;SDS_P2;PMS_P1;PMS_P2;Temp;Humidity;BMP_temperature;BMP_pressure;BME280_temperature;BME280_humidity;BME280_pressure;Samples;Min_cycle;Max_cycle;Signal;HPM_P1;HPM_P2
2022/08/27 00:01:48;;;;;;;23.63;15.35;;;20.70;99.90;;;;;;5068771;28;20209;-51
2022/08/27 00:04:16;;;;;;;20.60;14.88;;;20.70;99.90;;;;;;5068611;28;20219;-52
2022/08/27 00:06:45;;;;;;;17.15;14.55;;;20.70;99.90;;;;;;5065398;28;20210;-52
2022/08/27 00:09:13;;;;;;;23.38;16.80;;;20.70;99.90;;;;;;5067913;28;20231;-50
2022/08/27 00:11:43;;;;;;;25.08;16.20;;;20.70;99.90;;;;;;5064145;28;20337;-51
2022/08/27 00:14:12;;;;;;;24.17;15.98;;;20.80;99.90;;;;;;5068776;28;20233;-52
2022/08/27 00:16:41;;;;;;;19.92;15.27;;;20.70;99.90;;;;;;5069625;28;20216;-53
2022/08/27 00:19:10;;;;;;;27.90;16.13;;;20.70;99.90;;;;;;5068127;28;20213;-52
2022/08/27 00:21:39;;;;;;;21.30;15.82;;;20.70;99.90;;;;;;5068412;28;20291;-52
2022/08/27 00:24:07;;;;;;;23.85;15.90;;;20.70;99.90;;;;;;5069356;28;20278;-52
2022/08/27 00:26:35;;;;;;;23.65;15.13;;;20.70;99.90;;;;;;5069161;28;20266;-51
2022/08/27 00:29:09;;;;;;;22.58;14.95;;;20.70;99.90;;;;;;5055184;28;20981;-52
2022/08/27 00:31:37;;;;;;;21.35;15.25;;;20.70;99.90;;;;;;5068770;28;20250;-52
2022/08/27 00:34:07;;;;;;;18.30;14.13;;;20.70;99.90;;;;;;5061829;28;20749;-51
2022/08/27 00:36:39;;;;;;;20.35;14.88;;;20.80;99.90;;;;;;5069414;28;20212;-52
2022/08/27 00:39:08;;;;;;;26.02;17.02;;;20.80;99.90;;;;;;5069056;28;20205;-51
2022/08/27 00:41:37;;;;;;;22.13;16.80;;;20.80;99.90;;;;;;5068367;28;20258;-52
2022/08/27 00:44:06;;;;;;;19.40;15.77;;;20.80;99.90;;;;;;5067874;28;20217;-52
2022/08/27 00:46:37;;;;;;;21.98;15.85;;;20.80;99.90;;;;;;5068817;28;20205;-52
2022/08/27 00:49:11;;;;;;;23.45;15.50;;;20.80;99.90;;;;;;5068996;28;20201;-52
2022/08/27 00:51:40;;;;;;;25.52;17.23;;;20.80;99.90;;;;;;5069334;28;20247;-52
2022/08/27 00:54:09;;;;;;;21.80;15.93;;;20.80;99.90;;;;;;5054636;28;20228;-52
2022/08/27 00:56:43;;;;;;;23.10;15.82;;;20.70;99.90;;;;;;5057059;28;20745;-52
2022/08/27 00:59:20;;;;;;;24.33;17.13;;;20.70;99.90;;;;;;5042182;28;20209;-52
2022/08/27 01:04:37;;;;;;;22.90;17.17;;;20.80;99.90;;;;;;5069009;28;20221;-52
2022/08/27 01:07:05;;;;;;;25.55;17.10;;;20.80;99.90;;;;;;5062132;28;20209;-52
2022/08/27 01:09:35;;;;;;;19.73;15.57;;;20.70;99.90;;;;;;5068155;28;20212;-52
2022/08/27 01:12:04;;;;;;;27.45;18.70;;;20.70;99.90;;;;;;5068593;28;20209;-52
2022/08/27 01:14:32;;;;;;;25.67;16.45;;;20.70;99.90;;;;;;5070889;28;20755;-52
2022/08/27 01:17:03;;;;;;;26.85;17.73;;;20.70;99.90;;;;;;5072649;28;20690;-52
2022/08/27 01:19:37;;;;;;;22.05;17.23;;;20.70;99.90;;;;;;5071298;28;20217;-51
2022/08/27 01:22:11;;;;;;;24.00;18.52;;;20.70;99.90;;;;;;5072871;28;20204;-52
2022/08/27 01:24:54;;;;;;;25.38;18.52;;;20.60;99.90;;;;;;5072155;28;20274;-52
2022/08/27 01:27:31;;;;;;;21.00;16.77;;;20.60;99.90;;;;;;5072607;28;20209;-52
2022/08/27 01:29:59;;;;;;;20.42;16.38;;;20.60;99.90;;;;;;5046436;28;20201;-52
2022/08/27 01:32:30;;;;;;;21.20;16.70;;;20.60;99.90;;;;;;5060015;28;20213;-52
2022/08/27 01:34:59;;;;;;;22.05;17.58;;;20.70;99.90;;;;;;5068259;28;20232;-52
2022/08/27 01:37:28;;;;;;;22.67;17.65;;;20.70;99.90;;;;;;5072094;28;20216;-52
2022/08/27 01:39:58;;;;;;;26.30;18.77;;;20.60;99.90;;;;;;5071885;28;20216;-52
2022/08/27 01:42:30;;;;;;;23.67;17.27;;;20.60;99.90;;;;;;5071876;28;20209;-52
2022/08/27 01:45:00;;;;;;;24.52;18.55;;;20.50;99.90;;;;;;5060027;28;20221;-52
2022/08/27 01:47:33;;;;;;;23.42;18.15;;;20.50;99.90;;;;;;5072041;28;20234;-51
2022/08/27 01:50:01;;;;;;;24.92;19.20;;;20.50;99.90;;;;;;5071439;28;20247;-51
2022/08/27 01:52:31;;;;;;;25.90;17.92;;;20.40;99.90;;;;;;5072112;28;20262;-52
2022/08/27 01:55:00;;;;;;;20.45;17.77;;;20.40;99.90;;;;;;5071207;28;20229;-52
2022/08/27 01:57:28;;;;;;;24.98;17.67;;;20.40;99.90;;;;;;5072222;28;20251;-51
2022/08/27 01:59:56;;;;;;;24.45;17.23;;;20.50;99.90;;;;;;5070447;28;20205;-52
2022/08/27 02:02:25;;;;;;;24.95;18.63;;;20.40;99.90;;;;;;5071626;28;20723;-51
2022/08/27 02:04:54;;;;;;;25.17;17.20;;;20.40;99.90;;;;;;5071544;28;20711;-51
2022/08/27 02:07:22;;;;;;;25.67;17.73;;;20.30;99.90;;;;;;5067694;28;20266;-51
2022/08/27 02:09:50;;;;;;;21.08;16.85;;;20.40;99.90;;;;;;5072073;28;20255;-52
2022/08/27 02:12:20;;;;;;;21.90;16.48;;;20.30;99.90;;;;;;5071886;28;20263;-52
2022/08/27 02:14:48;;;;;;;22.50;16.60;;;20.40;99.90;;;;;;5071613;28;20607;-52
2022/08/27 02:17:16;;;;;;;21.90;16.65;;;20.40;99.90;;;;;;5071696;28;20278;-52
2022/08/27 02:19:44;;;;;;;21.60;16.40;;;20.40;99.90;;;;;;5071519;28;20286;-52
2022/08/27 02:22:12;;;;;;;23.27;17.58;;;20.30;99.90;;;;;;5071303;28;20270;-52
2022/08/27 02:24:40;;;;;;;24.70;17.90;;;20.30;99.90;;;;;;5071229;28;20216;-51
2022/08/27 02:27:09;;;;;;;22.83;17.40;;;20.30;99.90;;;;;;5071826;28;20213;-52
2022/08/27 02:29:39;;;;;;;20.15;16.55;;;20.20;99.90;;;;;;5057143;28;20733;-52
2022/08/27 02:32:07;;;;;;;20.15;15.73;;;20.20;99.90;;;;;;5067559;28;20634;-51
2022/08/27 02:34:50;;;;;;;20.45;15.75;;;20.30;99.90;;;;;;5058033;28;20229;-52
2022/08/27 02:37:18;;;;;;;19.88;14.43;;;20.30;99.90;;;;;;5071163;28;20300;-52
2022/08/27 02:39:46;;;;;;;19.75;14.68;;;20.20;99.90;;;;;;5070572;28;20205;-52
2022/08/27 02:42:15;;;;;;;18.30;14.00;;;20.20;99.90;;;;;;5071222;28;20751;-51
2022/08/27 02:44:44;;;;;;;18.08;13.93;;;20.20;99.90;;;;;;5060907;28;20274;-51
2022/08/27 02:47:13;;;;;;;18.83;13.85;;;20.20;99.90;;;;;;5071138;28;20209;-51
2022/08/27 02:49:41;;;;;;;18.52;13.27;;;20.10;99.90;;;;;;5070721;28;20213;-51
2022/08/27 02:52:09;;;;;;;17.45;13.52;;;20.20;99.90;;;;;;5070854;28;20250;-52
2022/08/27 02:54:37;;;;;;;19.17;13.98;;;20.10;99.90;;;;;;5070306;28;20850;-52
2022/08/27 02:57:06;;;;;;;15.68;12.80;;;20.10;99.90;;;;;;5070504;28;20209;-51
2022/08/27 02:59:34;;;;;;;14.95;12.40;;;20.10;99.90;;;;;;5070696;28;20213;-52
2022/08/27 03:02:04;;;;;;;17.50;12.65;;;20.10;99.90;;;;;;5070791;28;20205;-52
2022/08/27 03:04:32;;;;;;;14.27;11.43;;;20.10;99.90;;;;;;5070041;28;20221;-52
2022/08/27 03:07:00;;;;;;;15.25;12.65;;;20.10;99.90;;;;;;5064532;28;20612;-52
2022/08/27 03:09:28;;;;;;;16.48;11.60;;;20.10;99.90;;;;;;5069418;28;20205;-51
2022/08/27 03:11:57;;;;;;;12.55;10.25;;;20.10;99.90;;;;;;5067001;28;20209;-52
2022/08/27 03:14:25;;;;;;;13.45;10.88;;;20.10;99.90;;;;;;5069482;28;20255;-52
2022/08/27 03:16:53;;;;;;;13.90;11.93;;;20.10;99.90;;;;;;5070307;28;20262;-51
2022/08/27 03:19:21;;;;;;;15.35;11.75;;;20.10;99.90;;;;;;5069933;28;20250;-52
2022/08/27 03:21:51;;;;;;;14.13;10.50;;;20.10;99.90;;;;;;5070001;28;20219;-52
2022/08/27 03:24:21;;;;;;;12.98;10.88;;;20.10;99.90;;;;;;5070072;28;20225;-51
2022/08/27 03:26:50;;;;;;;13.57;11.23;;;20.20;99.90;;;;;;5069895;28;20319;-52
2022/08/27 03:29:20;;;;;;;13.63;11.00;;;20.10;99.90;;;;;;5068780;28;20221;-51
2022/08/27 03:31:48;;;;;;;16.23;11.90;;;20.10;99.90;;;;;;5068621;28;20257;-51
2022/08/27 03:34:17;;;;;;;14.77;12.32;;;20.10;99.90;;;;;;5062888;28;20729;-51
2022/08/27 03:36:50;;;;;;;18.70;11.63;;;20.10;99.90;;;;;;5069285;28;20220;-52
2022/08/27 03:39:18;;;;;;;15.65;10.75;;;20.10;99.90;;;;;;5069902;28;20262;-52
2022/08/27 03:41:46;;;;;;;13.40;10.80;;;20.10;99.90;;;;;;5069616;28;20270;-52
2022/08/27 03:44:23;;;;;;;14.68;11.55;;;20.10;99.90;;;;;;5059397;28;20232;-52
2022/08/27 03:46:51;;;;;;;11.63;10.00;;;20.10;99.90;;;;;;5069911;28;20243;-52
2022/08/27 03:49:20;;;;;;;12.82;10.25;;;20.10;99.90;;;;;;5069621;28;20209;-52
2022/08/27 03:51:51;;;;;;;11.50;9.43;;;20.10;99.90;;;;;;5069827;28;20257;-52
2022/08/27 03:54:19;;;;;;;11.82;9.70;;;20.10;99.90;;;;;;5069422;28;20317;-52
2022/08/27 03:56:48;;;;;;;10.68;9.13;;;20.10;99.90;;;;;;5069028;28;20731;-52
2022/08/27 03:59:16;;;;;;;10.05;8.43;;;20.00;99.90;;;;;;5069874;28;20236;-51
2022/08/27 04:01:45;;;;;;;10.98;8.40;;;20.00;99.90;;;;;;5069490;28;20209;-52
2022/08/27 04:04:13;;;;;;;13.50;8.45;;;20.00;99.90;;;;;;5069098;28;20324;-51
2022/08/27 04:06:41;;;;;;;11.18;9.20;;;20.00;99.90;;;;;;5067884;28;20206;-51
2022/08/27 04:09:11;;;;;;;10.32;8.88;;;20.00;99.90;;;;;;5069297;28;20201;-51
2022/08/27 04:11:39;;;;;;;9.70;8.68;;;20.00;99.90;;;;;;5057498;28;20803;-52
2022/08/27 04:14:08;;;;;;;10.40;8.90;;;20.10;99.90;;;;;;5069172;28;20305;-51
2022/08/27 04:16:54;;;;;;;10.48;8.88;;;20.10;99.90;;;;;;5069656;28;20255;-52
2022/08/27 04:19:23;;;;;;;10.85;9.73;;;20.10;99.90;;;;;;5068872;28;20228;-52
2022/08/27 04:21:59;;;;;;;11.77;9.93;;;20.00;99.90;;;;;;5069336;28;20212;-52
2022/08/27 04:24:30;;;;;;;12.45;10.30;;;20.00;99.90;;;;;;5068790;28;20221;-52
2022/08/27 04:26:58;;;;;;;12.60;10.73;;;20.00;99.90;;;;;;5068810;28;20254;-52
2022/08/27 04:29:26;;;;;;;12.90;11.48;;;20.10;99.90;;;;;;5060156;28;20212;-52
2022/08/27 04:31:55;;;;;;;12.23;10.48;;;20.00;99.90;;;;;;5066422;28;20286;-51
2022/08/27 04:34:23;;;;;;;15.63;10.32;;;20.00;99.90;;;;;;5052564;28;20224;-52
2022/08/27 04:36:54;;;;;;;14.50;10.00;;;20.00;99.90;;;;;;5069120;28;20266;-51
2022/08/27 04:39:22;;;;;;;11.30;9.68;;;20.00;99.90;;;;;;5069251;28;20205;-51
2022/08/27 04:41:53;;;;;;;14.27;10.38;;;20.00;99.90;;;;;;5068905;28;20208;-52
2022/08/27 04:44:22;;;;;;;12.00;9.30;;;20.00;99.90;;;;;;5059172;28;20225;-52
2022/08/27 04:46:55;;;;;;;11.00;8.93;;;20.00;99.90;;;;;;5068210;28;20208;-52
2022/08/27 04:49:24;;;;;;;9.70;8.35;;;19.90;99.90;;;;;;5059624;28;21033;-52
2022/08/27 04:51:52;;;;;;;10.93;8.57;;;19.90;99.90;;;;;;5039552;28;21001;-52
2022/08/27 04:54:21;;;;;;;11.77;7.97;;;20.00;99.90;;;;;;5064595;28;20228;-52
2022/08/27 04:57:01;;;;;;;7.90;7.10;;;20.00;99.90;;;;;;5072853;28;20212;-51
2022/08/27 04:59:30;;;;;;;11.18;8.00;;;19.90;99.90;;;;;;5050138;28;20647;-52
2022/08/27 05:01:58;;;;;;;8.00;6.95;;;19.80;99.90;;;;;;5053173;28;20201;-51
2022/08/27 05:04:27;;;;;;;6.88;6.20;;;19.80;99.90;;;;;;5040625;28;20225;-51
2022/08/27 05:06:56;;;;;;;9.55;6.78;;;19.90;99.90;;;;;;5040567;28;20206;-52
2022/08/27 05:09:24;;;;;;;8.75;6.25;;;20.00;99.90;;;;;;5034405;28;20273;-52
2022/08/27 05:11:54;;;;;;;7.68;6.75;;;20.00;99.90;;;;;;5036922;28;20293;-52
2022/08/27 05:14:28;;;;;;;6.20;5.60;;;20.00;99.90;;;;;;5034180;28;20284;-51
2022/08/27 05:16:57;;;;;;;8.15;6.57;;;20.00;99.90;;;;;;5035769;28;20278;-52
2022/08/27 05:19:26;;;;;;;7.05;6.35;;;20.00;99.90;;;;;;5032533;28;20210;-51
2022/08/27 05:21:54;;;;;;;6.57;5.93;;;19.90;99.90;;;;;;5035861;28;20887;-51
2022/08/27 05:24:22;;;;;;;6.13;5.53;;;19.90;99.90;;;;;;5034510;28;20226;-52
2022/08/27 05:26:51;;;;;;;7.97;6.55;;;20.00;99.90;;;;;;5036248;28;20256;-52
2022/08/27 05:29:19;;;;;;;8.07;6.80;;;19.90;99.90;;;;;;5036233;28;20256;-52
2022/08/27 05:31:49;;;;;;;6.63;6.00;;;20.00;99.90;;;;;;5034650;28;20279;-52
2022/08/27 05:34:17;;;;;;;6.35;5.75;;;20.00;99.90;;;;;;5046439;28;20275;-52
2022/08/27 05:36:53;;;;;;;7.03;6.03;;;20.00;99.90;;;;;;5048270;28;20231;-51
2022/08/27 05:39:21;;;;;;;8.48;5.93;;;20.00;99.90;;;;;;5053581;28;20201;-52
2022/08/27 05:41:51;;;;;;;6.55;5.50;;;20.10;99.90;;;;;;5070331;28;20209;-52
2022/08/27 05:44:19;;;;;;;7.28;6.15;;;20.00;99.90;;;;;;5062155;28;20226;-51
2022/08/27 05:47:08;;;;;;;7.82;6.65;;;20.00;99.90;;;;;;5068064;28;20321;-51
2022/08/27 05:49:37;;;;;;;7.07;6.47;;;19.90;99.90;;;;;;5053416;28;20213;-51
2022/08/27 05:52:09;;;;;;;6.95;6.30;;;19.90;99.90;;;;;;5071904;28;20270;-51
2022/08/27 05:54:38;;;;;;;5.82;5.28;;;19.90;99.90;;;;;;5070767;28;20233;-52
2022/08/27 05:57:06;;;;;;;5.80;5.30;;;19.90;99.90;;;;;;5046280;28;20722;-52
2022/08/27 06:02:22;;;;;;;6.60;5.35;;;19.90;99.90;;;;;;5036489;28;20659;-51
2022/08/27 06:04:52;;;;;;;5.90;5.03;;;20.00;99.90;;;;;;5036653;28;20312;-51
2022/08/27 06:07:20;;;;;;;5.68;5.18;;;20.00;99.90;;;;;;5034390;28;20582;-52
2022/08/27 06:09:48;;;;;;;6.57;5.88;;;20.00;99.90;;;;;;5036590;28;20249;-51
2022/08/27 06:12:17;;;;;;;6.07;5.57;;;20.00;99.90;;;;;;5051488;28;20213;-52
2022/08/27 06:14:45;;;;;;;7.95;5.65;;;20.00;99.90;;;;;;5044181;28;20675;-51
2022/08/27 06:17:13;;;;;;;6.82;5.30;;;19.90;99.90;;;;;;5050858;28;20225;-52
2022/08/27 06:19:42;;;;;;;5.82;5.22;;;20.00;99.90;;;;;;5050692;28;20569;-51
2022/08/27 06:22:10;;;;;;;6.78;6.07;;;20.00;99.90;;;;;;5051462;28;20259;-52
2022/08/27 06:24:39;;;;;;;6.57;5.72;;;20.10;99.90;;;;;;5050441;28;20229;-52
2022/08/27 06:27:10;;;;;;;5.82;5.32;;;20.10;99.90;;;;;;5050791;28;20264;-52
2022/08/27 06:29:38;;;;;;;5.95;5.03;;;20.00;99.90;;;;;;5050879;28;20202;-52
2022/08/27 06:32:08;;;;;;;6.15;5.55;;;20.10;99.90;;;;;;5050641;28;20678;-52
2022/08/27 06:34:36;;;;;;;7.75;6.13;;;20.20;99.90;;;;;;5050577;28;20229;-52
2022/08/27 06:37:06;;;;;;;9.43;5.43;;;20.10;99.90;;;;;;5051074;28;20951;-52
2022/08/27 06:39:35;;;;;;;6.13;5.53;;;20.10;99.90;;;;;;5054089;28;20201;-51
2022/08/27 06:42:05;;;;;;;7.30;6.50;;;20.20;99.90;;;;;;5071047;28;20209;-52
2022/08/27 06:44:33;;;;;;;8.73;6.57;;;20.20;99.90;;;;;;5060692;28;20792;-52
2022/08/27 06:47:02;;;;;;;8.25;6.18;;;20.20;99.90;;;;;;5046081;28;20205;-52
2022/08/27 06:49:30;;;;;;;6.93;6.22;;;20.20;99.90;;;;;;5048874;28;20205;-52
2022/08/27 06:51:59;;;;;;;6.80;6.20;;;20.20;99.90;;;;;;5048752;28;20206;-52
2022/08/27 06:54:28;;;;;;;9.85;8.27;;;20.30;99.90;;;;;;5048159;28;20241;-52
2022/08/27 06:56:58;;;;;;;12.65;9.05;;;20.30;99.90;;;;;;5043718;28;20279;-52
2022/08/27 06:59:26;;;;;;;10.15;8.20;;;20.30;99.90;;;;;;5048338;28;20740;-53
2022/08/27 07:01:55;;;;;;;13.80;9.48;;;20.30;99.90;;;;;;5049138;28;20671;-52
2022/08/27 07:04:25;;;;;;;11.90;8.35;;;20.30;99.90;;;;;;5049637;28;20264;-51
2022/08/27 07:07:00;;;;;;;11.98;8.85;;;20.30;99.90;;;;;;5050479;28;20201;-52
2022/08/27 07:09:31;;;;;;;12.80;9.32;;;20.40;99.90;;;;;;5049836;28;20263;-53
2022/08/27 07:12:00;;;;;;;12.23;10.25;;;20.30;99.90;;;;;;5050908;28;20216;-52
2022/08/27 07:14:29;;;;;;;13.73;9.80;;;20.30;99.90;;;;;;5048019;28;20628;-53
2022/08/27 07:17:04;;;;;;;11.38;9.73;;;20.40;99.90;;;;;;5046502;28;20291;-51
2022/08/27 07:19:38;;;;;;;10.93;8.90;;;20.30;99.90;;;;;;5046417;28;20710;-52
2022/08/27 07:22:09;;;;;;;12.48;9.05;;;20.30;99.90;;;;;;5050730;28;20206;-52
2022/08/27 07:24:39;;;;;;;11.25;9.50;;;20.30;99.90;;;;;;5047065;28;20303;-51
2022/08/27 07:27:07;;;;;;;13.25;9.43;;;20.40;99.90;;;;;;5050244;28;20224;-52
2022/08/27 07:29:35;;;;;;;15.23;10.88;;;20.30;99.90;;;;;;5041318;28;20259;-50
2022/08/27 07:32:04;;;;;;;14.65;10.10;;;20.30;99.90;;;;;;5049430;28;20205;-52
2022/08/27 07:34:32;;;;;;;13.20;10.38;;;20.30;99.90;;;;;;5049332;28;20229;-52
2022/08/27 07:37:00;;;;;;;12.70;10.88;;;20.30;99.90;;;;;;5044953;28;20253;-52
2022/08/27 07:39:28;;;;;;;13.57;10.32;;;20.20;99.90;;;;;;5049000;28;20216;-52
2022/08/27 07:44:43;;;;;;;13.63;10.48;;;20.20;99.90;;;;;;5046145;28;20714;-52
2022/08/27 07:47:12;;;;;;;14.60;10.55;;;20.20;99.90;;;;;;5048500;28;20206;-52
2022/08/27 07:49:40;;;;;;;15.02;10.75;;;20.30;99.90;;;;;;5048420;28;20292;-52
2022/08/27 07:52:08;;;;;;;15.20;12.05;;;20.30;99.90;;;;;;5031796;28;20260;-52
2022/08/27 07:54:36;;;;;;;14.98;10.90;;;20.30;99.90;;;;;;5031950;28;20280;-52
2022/08/27 07:57:06;;;;;;;13.52;9.80;;;20.30;99.90;;;;;;5027396;28;20611;-52
2022/08/27 07:59:34;;;;;;;13.07;9.98;;;20.30;99.90;;;;;;5039665;28;20698;-52
2022/08/27 08:02:02;;;;;;;15.50;11.27;;;20.30;99.90;;;;;;5046904;28;20198;-52
2022/08/27 08:04:30;;;;;;;14.60;10.98;;;20.40;99.90;;;;;;5036873;28;20230;-52
2022/08/27 08:06:58;;;;;;;14.45;9.82;;;20.30;99.90;;;;;;5030054;28;20641;-50
2022/08/27 08:09:26;;;;;;;12.05;8.05;;;20.30;99.90;;;;;;5042035;28;20869;-52
2022/08/27 08:11:54;;;;;;;10.57;7.82;;;20.40;99.90;;;;;;5048550;28;20228;-52
2022/08/27 08:14:24;;;;;;;10.18;8.63;;;20.40;99.90;;;;;;5048867;28;20236;-52
2022/08/27 08:16:52;;;;;;;12.50;8.90;;;20.30;99.90;;;;;;5045746;28;20682;-51
2022/08/27 08:19:21;;;;;;;10.48;8.88;;;20.40;99.90;;;;;;5040020;28;20256;-52
2022/08/27 08:21:49;;;;;;;10.27;8.40;;;20.50;99.90;;;;;;5047072;28;20210;-52
2022/08/27 08:24:26;;;;;;;13.13;8.85;;;20.60;99.90;;;;;;5047710;28;20261;-53
2022/08/27 08:26:54;;;;;;;11.18;8.30;;;20.70;99.90;;;;;;5048081;28;20263;-51
2022/08/27 08:29:23;;;;;;;11.98;8.15;;;20.80;99.90;;;;;;5047593;28;20202;-52
2022/08/27 08:31:51;;;;;;;11.70;8.43;;;20.80;99.90;;;;;;5048236;28;20209;-52
2022/08/27 08:34:20;;;;;;;9.52;7.70;;;20.80;99.90;;;;;;5047125;28;20226;-52
2022/08/27 08:36:48;;;;;;;8.48;7.28;;;20.80;99.90;;;;;;5048209;28;20209;-51
2022/08/27 08:39:22;;;;;;;8.57;6.75;;;20.70;99.90;;;;;;5048905;28;20209;-52
2022/08/27 08:41:53;;;;;;;10.30;7.28;;;20.70;99.90;;;;;;5051131;28;20764;-52
2022/08/27 08:44:31;;;;;;;9.65;7.25;;;20.70;99.90;;;;;;5048755;28;20226;-51
2022/08/27 08:47:03;;;;;;;10.18;7.88;;;20.60;99.90;;;;;;5052503;28;20201;-52
2022/08/27 08:49:42;;;;;;;11.57;8.18;;;20.60;99.90;;;;;;5048785;28;20251;-52
2022/08/27 08:52:23;;;;;;;10.70;7.32;;;20.50;99.90;;;;;;5051647;28;20201;-51
2022/08/27 08:55:06;;;;;;;9.93;7.40;;;20.50;99.90;;;;;;5050722;28;20234;-52
2022/08/27 08:57:39;;;;;;;12.52;9.23;;;20.40;99.90;;;;;;5051949;28;20224;-52
2022/08/27 09:00:12;;;;;;;12.10;8.85;;;20.30;99.90;;;;;;5051655;28;20205;-51
2022/08/27 09:02:44;;;;;;;11.63;8.90;;;20.30;99.90;;;;;;5045290;28;20210;-51
2022/08/27 09:05:12;;;;;;;9.40;8.30;;;20.40;99.90;;;;;;5052092;28;20224;-52
2022/08/27 09:07:48;;;;;;;13.13;7.78;;;20.30;99.90;;;;;;5059654;28;20235;-52
2022/08/27 09:10:26;;;;;;;12.02;8.68;;;20.30;99.90;;;;;;5068300;28;20254;-52
2022/08/27 09:12:59;;;;;;;10.38;7.72;;;20.30;99.90;;;;;;5068176;28;20228;-52
2022/08/27 09:15:31;;;;;;;9.73;7.20;;;20.40;99.90;;;;;;5068694;28;20274;-51
2022/08/27 09:18:07;;;;;;;10.93;7.80;;;20.40;99.90;;;;;;5068299;28;20587;-52
2022/08/27 09:20:46;;;;;;;11.68;7.38;;;20.40;99.90;;;;;;5068580;28;20248;-52
2022/08/27 09:23:23;;;;;;;8.25;7.40;;;20.50;99.90;;;;;;5066839;28;20654;-52
2022/08/27 09:25:51;;;;;;;9.43;6.43;;;20.50;99.90;;;;;;5066989;28;20259;-52
2022/08/27 09:31:12;;;;;;;8.68;6.70;;;20.60;99.90;;;;;;5043607;28;20247;-53
2022/08/27 09:33:40;;;;;;;7.38;6.65;;;20.50;99.90;;;;;;5048958;28;20275;-52
2022/08/27 09:36:24;;;;;;;8.30;5.65;;;20.60;99.90;;;;;;5052625;28;20208;-52
2022/08/27 09:38:56;;;;;;;6.32;5.68;;;20.70;99.90;;;;;;5066649;28;20291;-52
2022/08/27 09:41:31;;;;;;;7.68;5.22;;;20.90;99.90;;;;;;5053259;28;20209;-52
2022/08/27 09:44:02;;;;;;;9.25;4.82;;;20.90;99.90;;;;;;5045718;28;20278;-52
2022/08/27 09:46:31;;;;;;;7.35;5.25;;;21.00;99.90;;;;;;5050841;28;20264;-53
2022/08/27 09:49:10;;;;;;;7.03;5.35;;;21.10;99.90;;;;;;5050856;28;20287;-53
2022/08/27 09:51:41;;;;;;;5.85;5.03;;;21.10;99.90;;;;;;5051294;28;20210;-52
2022/08/27 09:54:12;;;;;;;6.32;5.70;;;21.10;99.90;;;;;;5049378;28;20287;-52
2022/08/27 09:56:47;;;;;;;6.50;5.65;;;21.10;99.90;;;;;;5049683;28;20320;-52
2022/08/27 09:59:23;;;;;;;6.85;5.50;;;21.10;99.90;;;;;;5050804;28;21032;-52
2022/08/27 10:01:56;;;;;;;5.20;4.70;;;21.10;99.90;;;;;;5050272;28;20198;-52
2022/08/27 10:04:27;;;;;;;6.75;5.45;;;21.20;99.90;;;;;;5050327;28;20225;-52
2022/08/27 10:06:55;;;;;;;7.05;5.22;;;21.30;99.90;;;;;;5050070;28;20237;-52
2022/08/27 10:09:29;;;;;;;6.78;5.45;;;21.30;99.90;;;;;;5050298;28;20252;-52
2022/08/27 10:12:03;;;;;;;6.63;5.30;;;21.30;99.90;;;;;;5050370;28;20614;-51
2022/08/27 10:14:34;;;;;;;5.50;5.00;;;21.40;99.90;;;;;;5049747;28;20851;-51
2022/08/27 10:17:15;;;;;;;6.45;5.47;;;21.40;99.90;;;;;;5050030;28;20670;-52
2022/08/27 10:19:57;;;;;;;9.00;6.15;;;21.40;99.90;;;;;;5050212;28;20299;-51
2022/08/27 10:22:37;;;;;;;8.25;6.07;;;21.40;99.90;;;;;;5042874;28;20817;-51
2022/08/27 10:25:17;;;;;;;9.20;6.55;;;21.40;99.90;;;;;;5040348;28;20229;-52
2022/08/27 10:27:53;;;;;;;7.60;6.00;;;21.40;99.90;;;;;;5047252;28;20263;-52
2022/08/27 10:30:31;;;;;;;9.50;5.20;;;21.50;99.90;;;;;;5051033;28;20209;-52
2022/08/27 10:33:07;;;;;;;8.07;5.55;;;21.70;99.90;;;;;;5046514;28;20689;-52
2022/08/27 10:35:44;;;;;;;6.05;5.45;;;21.80;99.90;;;;;;5047181;28;20588;-50
2022/08/27 10:38:24;;;;;;;6.55;5.13;;;21.70;99.90;;;;;;5041999;28;20668;-52
2022/08/27 10:40:58;;;;;;;7.85;4.85;;;21.70;99.90;;;;;;5043988;28;20199;-52
2022/08/27 10:43:52;;;;;;;5.32;4.72;;;21.60;99.90;;;;;;5048770;28;20331;-51
2022/08/27 10:46:47;;;;;;;7.43;4.80;;;21.70;99.90;;;;;;5038105;28;20275;-52
2022/08/27 10:49:31;;;;;;;5.65;4.50;;;21.70;99.90;;;;;;5038477;28;20198;-52
2022/08/27 10:52:09;;;;;;;5.40;4.82;;;21.80;99.90;;;;;;5044339;28;20268;-52
2022/08/27 10:54:40;;;;;;;4.50;4.07;;;21.80;99.90;;;;;;5044611;28;21057;-52
2022/08/27 10:57:16;;;;;;;4.88;4.35;;;21.90;99.90;;;;;;5050914;28;20205;-52
2022/08/27 11:00:10;;;;;;;9.63;4.80;;;21.90;99.90;;;;;;5048161;28;20316;-52
2022/08/27 11:02:44;;;;;;;5.05;4.07;;;21.80;99.90;;;;;;5033625;28;20260;-52
2022/08/27 11:05:17;;;;;;;4.38;3.97;;;21.90;99.90;;;;;;5047452;28;20271;-51
2022/08/27 11:07:51;;;;;;;7.85;5.20;;;22.00;99.90;;;;;;5043295;28;20206;-52
2022/08/27 11:10:24;;;;;;;9.88;8.40;;;22.00;99.90;;;;;;5039264;28;20255;-52
2022/08/27 11:12:57;;;;;;;9.50;7.80;;;21.90;99.90;;;;;;5054849;28;20220;-52
2022/08/27 11:15:29;;;;;;;7.65;6.88;;;21.80;99.90;;;;;;5069477;28;20216;-51
2022/08/27 11:18:04;;;;;;;7.10;5.75;;;21.70;99.90;;;;;;5069232;28;20216;-50
2022/08/27 11:20:40;;;;;;;5.18;4.43;;;21.80;99.90;;;;;;5054534;28;20260;-50
2022/08/27 11:23:13;;;;;;;7.03;5.38;;;21.90;99.90;;;;;;5036090;28;20198;-50
2022/08/27 11:25:49;;;;;;;5.60;4.97;;;21.90;99.90;;;;;;5042346;28;20205;-51
2022/08/27 11:28:21;;;;;;;6.05;4.50;;;21.90;99.90;;;;;;5049476;28;20210;-51
2022/08/27 11:31:03;;;;;;;6.20;4.93;;;22.00;99.90;;;;;;5041865;28;20210;-51
2022/08/27 11:33:39;;;;;;;6.25;4.72;;;21.90;99.90;;;;;;5046269;28;20615;-51
2022/08/27 11:36:41;;;;;;;9.48;8.50;;;21.90;99.90;;;;;;5048509;28;20197;-51
2022/08/27 11:39:24;;;;;;;6.55;5.65;;;21.90;99.90;;;;;;5043465;28;20221;-51
2022/08/27 11:42:07;;;;;;;5.57;4.03;;;21.90;99.90;;;;;;5044593;28;20232;-51
2022/08/27 11:44:43;;;;;;;6.15;5.03;;;22.00;99.90;;;;;;5045438;28;20702;-52
2022/08/27 11:47:15;;;;;;;8.18;7.38;;;22.10;99.90;;;;;;5046513;28;20205;-52
2022/08/27 11:49:47;;;;;;;5.97;5.43;;;22.00;99.90;;;;;;5049198;28;20689;-51
2022/08/27 11:52:30;;;;;;;5.65;5.05;;;21.90;99.90;;;;;;5050546;28;20210;-52
2022/08/27 11:55:13;;;;;;;6.60;5.72;;;22.00;99.90;;;;;;5053842;28;20225;-51
2022/08/27 11:57:42;;;;;;;7.60;5.75;;;22.00;99.90;;;;;;5042873;28;20209;-52
2022/08/27 12:00:16;;;;;;;7.45;6.30;;;21.90;99.90;;;;;;5045814;28;20225;-52
2022/08/27 12:02:56;;;;;;;7.60;6.20;;;21.90;99.90;;;;;;5052063;28;20200;-52
2022/08/27 12:05:35;;;;;;;10.23;8.93;;;21.90;99.90;;;;;;5049745;28;20205;-52
2022/08/27 12:08:25;;;;;;;7.45;6.45;;;21.90;99.90;;;;;;5045642;28;20661;-52
2022/08/27 12:11:06;;;;;;;6.65;5.82;;;22.10;99.90;;;;;;5043561;28;20253;-52
2022/08/27 12:13:41;;;;;;;10.60;8.05;;;22.20;99.90;;;;;;5047925;28;20307;-52
2022/08/27 12:16:22;;;;;;;9.13;5.70;;;22.10;99.90;;;;;;5051441;28;20791;-52
2022/08/27 12:19:18;;;;;;;6.10;4.80;;;22.30;99.90;;;;;;5051873;28;20290;-51
2022/08/27 12:22:01;;;;;;;8.05;6.78;;;22.40;99.90;;;;;;5047768;28;20197;-52
2022/08/27 12:24:42;;;;;;;5.68;5.07;;;22.50;99.90;;;;;;5049132;28;20229;-52
2022/08/27 12:27:27;;;;;;;4.93;4.53;;;22.60;99.90;;;;;;5042027;28;20659;-52
2022/08/27 12:29:58;;;;;;;5.22;4.72;;;22.90;99.90;;;;;;5044198;28;20198;-52
2022/08/27 12:32:31;;;;;;;5.22;4.60;;;23.10;99.90;;;;;;5047647;28;20671;-52
2022/08/27 12:35:05;;;;;;;5.68;4.07;;;23.20;99.90;;;;;;5046814;28;20225;-52
2022/08/27 12:37:36;;;;;;;4.53;4.10;;;23.20;99.90;;;;;;5047958;28;20244;-51
2022/08/27 12:40:17;;;;;;;4.88;4.40;;;23.00;99.90;;;;;;5046565;28;20225;-52
2022/08/27 12:42:47;;;;;;;5.53;4.07;;;23.00;99.90;;;;;;5052885;28;20260;-51
2022/08/27 12:45:21;;;;;;;6.10;4.32;;;22.90;99.90;;;;;;5047655;28;20280;-52
2022/08/27 12:47:49;;;;;;;4.80;4.30;;;23.00;99.90;;;;;;5038977;28;20198;-52
2022/08/27 12:50:25;;;;;;;5.13;4.60;;;23.00;99.90;;;;;;5038682;28;20209;-52
2022/08/27 12:53:25;;;;;;;6.43;4.75;;;23.00;99.90;;;;;;5047887;28;20247;-52
2022/08/27 12:56:02;;;;;;;5.68;5.07;;;22.90;99.90;;;;;;5045263;28;20570;-52
2022/08/27 12:58:44;;;;;;;5.78;4.15;;;22.90;99.90;;;;;;5046902;28;20213;-52
2022/08/27 13:01:28;;;;;;;5.03;4.18;;;23.00;99.90;;;;;;5048123;28;20233;-52
2022/08/27 13:03:59;;;;;;;7.05;4.70;;;23.30;99.90;;;;;;5045745;28;20225;-51
2022/08/27 13:06:31;;;;;;;6.78;4.55;;;23.40;99.90;;;;;;5047287;28;20635;-52
2022/08/27 13:09:01;;;;;;;6.75;4.55;;;23.50;99.90;;;;;;5046850;28;20210;-52
2022/08/27 13:11:32;;;;;;;8.57;5.43;;;23.40;99.90;;;;;;5051669;28;20254;-52
2022/08/27 13:14:09;;;;;;;9.82;5.20;;;23.20;99.90;;;;;;5050889;28;20283;-52